Time;durP1;ratioP1;P1;durP2;ratioP2;P2;SDS_P1;SDS_P2;PMS_P1;PMS_P2;Temp;Humidity;BMP_temperature;BMP_pressure;BME280_temperature;BME280_humidity;BME280_pressure;Samples;Min_cycle;Max_cycle;Signal;HPM_P1;HPM_P2
2022/05/05 00:01:28;;;;;;;10.27;4.63;;;9.70;97.30;;;;;;5135950;27;20104;-73
2022/05/05 00:03:55;;;;;;;12.07;4.90;;;9.70;97.30;;;;;;5135924;27;20100;-73
2022/05/05 00:06:22;;;;;;;11.88;4.72;;;9.60;97.30;;;;;;5135380;27;20043;-73
2022/05/05 00:08:47;;;;;;;12.55;5.57;;;9.50;97.50;;;;;;5135688;27;20047;-73
2022/05/05 00:16:41;;;;;;;10.50;4.65;;;9.40;97.60;;;;;;5134737;27;20057;-74
2022/05/05 00:19:07;;;;;;;10.32;5.38;;;9.40;97.60;;;;;;5170132;27;20138;-73
2022/05/05 00:21:32;;;;;;;9.10;4.07;;;9.40;97.60;;;;;;5135556;27;20058;-73
2022/05/05 00:23:58;;;;;;;10.70;5.20;;;9.40;97.70;;;;;;5135268;27;20462;-73
2022/05/05 00:26:24;;;;;;;11.00;5.53;;;9.40;97.80;;;;;;5118305;27;20058;-73
2022/05/05 00:28:49;;;;;;;10.43;4.78;;;9.40;97.80;;;;;;5135449;27;20135;-73
2022/05/05 00:31:15;;;;;;;8.40;4.60;;;9.40;97.80;;;;;;5134964;27;20383;-73
2022/05/05 00:33:41;;;;;;;11.85;5.10;;;9.40;97.80;;;;;;5135163;27;20101;-73
2022/05/05 00:36:07;;;;;;;10.15;4.85;;;9.40;97.90;;;;;;5135303;27;20393;-73
2022/05/05 00:38:34;;;;;;;11.70;5.38;;;9.40;97.90;;;;;;5135171;27;20050;-73
2022/05/05 00:40:59;;;;;;;14.25;5.03;;;9.50;98.00;;;;;;5134880;27;20062;-73
2022/05/05 00:43:25;;;;;;;13.65;5.13;;;9.50;98.00;;;;;;5117515;27;20051;-73
2022/05/05 00:45:50;;;;;;;11.82;5.55;;;9.50;98.00;;;;;;5135065;27;20044;-73
2022/05/05 00:48:17;;;;;;;11.18;5.25;;;9.60;98.10;;;;;;5134638;27;20067;-73
2022/05/05 00:50:42;;;;;;;13.52;5.82;;;9.70;98.00;;;;;;5117822;27;20047;-73
2022/05/05 00:53:08;;;;;;;11.93;5.70;;;9.70;98.00;;;;;;5134405;27;20050;-73
2022/05/05 00:55:37;;;;;;;11.63;5.85;;;9.60;98.10;;;;;;5134859;27;20059;-73
2022/05/05 00:58:04;;;;;;;12.43;5.55;;;9.60;98.20;;;;;;5134529;27;20051;-73
2022/05/05 01:00:32;;;;;;;13.98;5.65;;;9.60;98.20;;;;;;5134638;27;20051;-73
2022/05/05 01:02:59;;;;;;;10.00;5.65;;;9.60;98.30;;;;;;5134432;27;20078;-73
2022/05/05 01:05:26;;;;;;;15.32;5.72;;;9.70;98.40;;;;;;5134683;27;20426;-73
2022/05/05 01:07:53;;;;;;;12.55;5.45;;;9.60;98.40;;;;;;5117469;27;20055;-73
2022/05/05 01:10:19;;;;;;;15.15;5.55;;;9.60;98.40;;;;;;5135450;27;20393;-73
2022/05/05 01:12:45;;;;;;;12.57;5.28;;;9.70;98.40;;;;;;5133630;27;20614;-73
2022/05/05 01:15:11;;;;;;;12.95;5.78;;;9.70;98.50;;;;;;5134329;27;20061;-73
2022/05/05 01:17:37;;;;;;;11.68;5.28;;;9.70;98.50;;;;;;5134522;27;20138;-73
2022/05/05 01:20:10;;;;;;;10.32;5.07;;;9.80;98.50;;;;;;5134219;27;20047;-73
2022/05/05 01:22:36;;;;;;;13.23;5.18;;;9.80;98.50;;;;;;5117339;27;20059;-73
2022/05/05 01:30:30;;;;;;;15.32;6.10;;;9.90;98.50;;;;;;5134332;27;20051;-73
2022/05/05 01:32:55;;;;;;;12.65;5.10;;;10.00;98.50;;;;;;5116502;27;20051;-73
2022/05/05 01:35:21;;;;;;;10.40;4.95;;;10.00;98.50;;;;;;5116740;27;20054;-73
2022/05/05 01:37:47;;;;;;;8.07;4.88;;;10.00;98.60;;;;;;5116926;27;20043;-73
2022/05/05 01:40:14;;;;;;;8.02;4.68;;;10.00;98.60;;;;;;5116765;27;20474;-73
2022/05/05 01:42:40;;;;;;;9.38;4.75;;;10.10;98.70;;;;;;5168265;27;20051;-73
2022/05/05 01:45:06;;;;;;;10.70;4.85;;;10.00;98.60;;;;;;5168310;27;20047;-73
2022/05/05 01:47:32;;;;;;;9.82;5.00;;;10.00;98.60;;;;;;5133932;27;20055;-73
2022/05/05 01:49:59;;;;;;;9.98;4.70;;;10.00;98.60;;;;;;5133514;27;20047;-73
2022/05/05 01:52:25;;;;;;;12.00;5.25;;;10.00;98.60;;;;;;5133201;27;20062;-73
2022/05/05 01:54:51;;;;;;;10.20;5.10;;;10.00;98.50;;;;;;5133391;27;20050;-73
2022/05/05 01:57:17;;;;;;;14.85;5.63;;;10.00;98.60;;;;;;5116515;27;20482;-73
2022/05/05 01:59:42;;;;;;;13.70;5.50;;;10.00;98.50;;;;;;5116427;27;20043;-73
2022/05/05 02:02:08;;;;;;;8.82;5.10;;;10.00;98.50;;;;;;5116435;28;20126;-73
2022/05/05 02:04:34;;;;;;;15.30;6.00;;;9.90;98.60;;;;;;5133721;27;20555;-73
2022/05/05 02:06:59;;;;;;;9.25;4.97;;;9.90;98.60;;;;;;5133578;27;20047;-73
2022/05/05 02:09:25;;;;;;;13.07;5.10;;;9.80;98.70;;;;;;5132988;27;20103;-73
2022/05/05 02:11:53;;;;;;;9.20;4.78;;;9.80;98.70;;;;;;5133243;27;20079;-73
2022/05/05 02:14:19;;;;;;;12.57;5.07;;;9.80;98.60;;;;;;5133049;27;20154;-73
2022/05/05 02:16:45;;;;;;;9.18;4.88;;;9.80;98.60;;;;;;5133347;28;20493;-73
2022/05/05 02:19:11;;;;;;;8.68;4.53;;;9.70;98.50;;;;;;5133469;28;20055;-73
2022/05/05 02:21:36;;;;;;;9.80;4.93;;;9.80;98.60;;;;;;5116107;28;20051;-73
2022/05/05 02:24:02;;;;;;;9.13;4.65;;;9.70;98.40;;;;;;5133319;28;20049;-73
2022/05/05 02:26:28;;;;;;;8.65;4.80;;;9.70;98.50;;;;;;5133437;27;20051;-73
2022/05/05 02:28:54;;;;;;;11.60;5.18;;;9.60;98.50;;;;;;5133245;28;20043;-73
2022/05/05 02:31:21;;;;;;;9.73;4.85;;;9.50;98.50;;;;;;5133665;28;20054;-73
2022/05/05 02:33:46;;;;;;;9.25;4.68;;;9.50;98.60;;;;;;5133310;28;20039;-72
2022/05/05 02:38:56;;;;;;;14.45;5.50;;;9.50;98.70;;;;;;5133336;27;20100;-73
2022/05/05 02:41:22;;;;;;;9.68;4.78;;;9.40;98.60;;;;;;5136997;27;20457;-73
2022/05/05 02:43:47;;;;;;;11.20;4.30;;;9.40;98.70;;;;;;5136792;27;20442;-73
2022/05/05 02:46:14;;;;;;;9.55;5.18;;;9.40;98.70;;;;;;5137054;27;20052;-73
2022/05/05 02:48:39;;;;;;;10.43;5.00;;;9.30;98.70;;;;;;5137136;27;20047;-73
2022/05/05 02:51:05;;;;;;;7.15;4.72;;;9.30;98.70;;;;;;5136707;27;20053;-73
2022/05/05 02:56:16;;;;;;;11.13;5.10;;;9.20;98.80;;;;;;5136866;27;20108;-72
2022/05/05 02:58:42;;;;;;;10.43;5.13;;;9.20;98.90;;;;;;5136913;27;20051;-73
2022/05/05 03:01:08;;;;;;;8.35;4.63;;;9.20;98.90;;;;;;5136941;27;20111;-73
2022/05/05 03:03:34;;;;;;;10.98;4.82;;;9.20;99.00;;;;;;5136881;27;20051;-73
2022/05/05 03:06:00;;;;;;;12.18;5.32;;;9.30;99.00;;;;;;5137048;27;20047;-73
2022/05/05 03:08:26;;;;;;;13.63;5.38;;;9.30;99.10;;;;;;5137421;27;20474;-73
2022/05/05 03:10:52;;;;;;;8.50;5.20;;;9.40;99.00;;;;;;5136891;27;20126;-72
2022/05/05 03:13:17;;;;;;;9.60;4.93;;;9.40;99.00;;;;;;5136309;27;20171;-73
2022/05/05 03:15:44;;;;;;;10.75;5.30;;;9.40;99.00;;;;;;5136841;27;20090;-72
2022/05/05 03:18:10;;;;;;;12.07;5.50;;;9.40;99.00;;;;;;5136436;27;20039;-73
2022/05/05 03:20:36;;;;;;;11.40;5.70;;;9.40;99.10;;;;;;5137083;27;20046;-73
2022/05/05 03:23:02;;;;;;;11.65;5.68;;;9.40;99.10;;;;;;5137475;27;20485;-73
2022/05/05 03:25:28;;;;;;;10.70;5.35;;;9.50;99.10;;;;;;5136556;27;20043;-73
2022/05/05 03:27:54;;;;;;;12.85;5.53;;;9.50;99.10;;;;;;5136413;27;20050;-73
2022/05/05 03:30:19;;;;;;;10.65;5.55;;;9.60;99.10;;;;;;5119336;27;20043;-73
2022/05/05 03:32:45;;;;;;;12.35;5.65;;;9.50;99.00;;;;;;5119090;27;20078;-73
2022/05/05 03:35:11;;;;;;;11.52;5.43;;;9.60;99.00;;;;;;5136390;27;20102;-73
2022/05/05 03:37:36;;;;;;;12.15;5.20;;;9.50;98.80;;;;;;5136504;27;20054;-73
2022/05/05 03:40:03;;;;;;;13.77;5.93;;;9.50;98.90;;;;;;5136025;27;20050;-73
2022/05/05 03:42:29;;;;;;;22.25;5.80;;;9.60;99.00;;;;;;5118579;27;20063;-73
2022/05/05 03:44:54;;;;;;;13.63;6.07;;;9.50;99.00;;;;;;5118973;27;20395;-73
2022/05/05 03:47:20;;;;;;;14.05;5.90;;;9.60;98.90;;;;;;5135876;27;20457;-73
2022/05/05 03:49:46;;;;;;;13.07;5.95;;;9.60;98.90;;;;;;5136710;27;20126;-73
2022/05/05 03:52:12;;;;;;;9.85;6.20;;;9.70;98.90;;;;;;5134541;27;20062;-73
2022/05/05 03:54:38;;;;;;;15.55;6.20;;;9.70;99.00;;;;;;5119008;27;20059;-73
2022/05/05 03:57:04;;;;;;;11.13;6.40;;;9.70;99.00;;;;;;5135883;27;20047;-73
2022/05/05 03:59:29;;;;;;;13.80;6.57;;;9.70;99.10;;;;;;5118816;27;20059;-73
2022/05/05 04:01:55;;;;;;;18.67;7.60;;;9.70;99.10;;;;;;5135235;27;20405;-73
2022/05/05 04:04:21;;;;;;;14.30;7.00;;;9.80;99.10;;;;;;5135935;27;20135;-73
2022/05/05 04:06:47;;;;;;;15.27;6.93;;;9.80;99.10;;;;;;5135899;27;20103;-73
2022/05/05 04:09:12;;;;;;;15.20;7.45;;;9.80;98.80;;;;;;5135659;27;20043;-73
2022/05/05 04:11:38;;;;;;;10.90;7.00;;;9.80;98.80;;;;;;5135321;27;20047;-73
2022/05/05 04:14:04;;;;;;;16.45;6.57;;;9.90;98.80;;;;;;5134962;27;20099;-73
2022/05/05 04:16:33;;;;;;;15.77;6.88;;;10.00;98.80;;;;;;5135577;27;20051;-73
2022/05/05 04:19:03;;;;;;;14.60;7.20;;;9.90;98.80;;;;;;5135622;27;20108;-73
2022/05/05 04:21:29;;;;;;;13.40;7.18;;;9.90;98.90;;;;;;5135540;27;20549;-73
2022/05/05 04:23:54;;;;;;;15.95;7.60;;;9.90;98.80;;;;;;5135622;27;20051;-73
2022/05/05 04:26:22;;;;;;;16.52;7.25;;;9.90;98.90;;;;;;5136419;27;20057;-73
2022/05/05 04:28:50;;;;;;;18.17;8.30;;;10.00;98.80;;;;;;5135171;27;20047;-73
2022/05/05 04:31:17;;;;;;;18.10;7.78;;;10.00;98.70;;;;;;5117928;27;20043;-73
2022/05/05 04:33:43;;;;;;;16.52;7.38;;;10.10;98.90;;;;;;5135048;27;20542;-73
2022/05/05 04:36:12;;;;;;;14.63;6.93;;;10.20;98.80;;;;;;5135165;27;20075;-73
2022/05/05 04:38:38;;;;;;;15.20;7.63;;;10.20;98.80;;;;;;5135395;27;20047;-73
2022/05/05 04:41:04;;;;;;;12.73;7.57;;;10.30;98.70;;;;;;5134965;27;20047;-73
2022/05/05 04:43:30;;;;;;;17.42;7.32;;;10.30;98.70;;;;;;5134518;27;20043;-73
2022/05/05 04:45:56;;;;;;;12.93;6.65;;;10.40;98.50;;;;;;5134818;27;20434;-73
2022/05/05 04:48:21;;;;;;;15.70;7.85;;;10.40;98.40;;;;;;5135047;27;20514;-73
2022/05/05 04:50:47;;;;;;;15.30;7.03;;;10.40;98.60;;;;;;5134849;27;20039;-73
2022/05/05 04:53:13;;;;;;;14.43;6.88;;;10.50;98.60;;;;;;5134149;27;20055;-73
2022/05/05 04:55:38;;;;;;;12.98;6.97;;;10.50;98.50;;;;;;5135647;27;20047;-73
2022/05/05 04:58:04;;;;;;;13.75;7.00;;;10.50;98.40;;;;;;5134687;27;20499;-73
2022/05/05 05:00:30;;;;;;;14.20;6.68;;;10.50;98.50;;;;;;5134345;27;20521;-73
2022/05/05 05:02:59;;;;;;;12.68;7.13;;;10.50;98.60;;;;;;5134565;27;20039;-73
2022/05/05 05:05:25;;;;;;;15.30;6.70;;;10.60;98.60;;;;;;5134734;27;20047;-73
2022/05/05 05:07:51;;;;;;;17.92;7.35;;;10.60;98.60;;;;;;5134392;27;20542;-73
2022/05/05 05:10:16;;;;;;;12.10;6.55;;;10.60;98.60;;;;;;5134761;27;20129;-72
2022/05/05 05:12:42;;;;;;;12.20;6.97;;;10.70;98.50;;;;;;5133555;27;20042;-73
2022/05/05 05:15:08;;;;;;;11.50;6.68;;;10.70;98.10;;;;;;5134310;27;20081;-73
2022/05/05 05:17:34;;;;;;;14.43;6.88;;;10.80;98.20;;;;;;5134349;27;20043;-73
2022/05/05 05:20:00;;;;;;;18.33;7.32;;;10.90;98.10;;;;;;5169063;27;20050;-73
2022/05/05 05:22:26;;;;;;;18.73;7.15;;;10.90;98.10;;;;;;5134229;27;20043;-73
2022/05/05 05:24:52;;;;;;;16.35;7.05;;;10.90;98.10;;;;;;5134145;27;20473;-73
2022/05/05 05:27:17;;;;;;;17.00;6.40;;;11.00;98.00;;;;;;5133917;27;20075;-73
2022/05/05 05:29:43;;;;;;;14.38;7.13;;;11.00;97.80;;;;;;5133974;27;20043;-73
2022/05/05 05:32:09;;;;;;;19.40;7.60;;;11.10;97.80;;;;;;5133897;27;20050;-73
2022/05/05 05:34:34;;;;;;;15.02;7.80;;;11.10;97.90;;;;;;5134113;27;20061;-73
2022/05/05 05:37:00;;;;;;;19.35;7.35;;;11.20;97.60;;;;;;5117350;27;20050;-73
2022/05/05 05:39:26;;;;;;;15.70;7.65;;;11.30;97.90;;;;;;5116939;27;20381;-73
2022/05/05 05:41:52;;;;;;;15.90;7.90;;;11.30;97.50;;;;;;5116951;27;20043;-73
2022/05/05 05:44:18;;;;;;;13.68;7.22;;;11.40;97.50;;;;;;5133244;27;20055;-73
2022/05/05 05:46:44;;;;;;;15.93;7.40;;;11.40;97.70;;;;;;5134033;27;20146;-73
2022/05/05 05:49:10;;;;;;;17.25;6.78;;;11.50;97.80;;;;;;5134029;27;20050;-73
2022/05/05 05:51:36;;;;;;;13.40;6.80;;;11.50;97.70;;;;;;5134985;27;20047;-73
2022/05/05 05:54:02;;;;;;;21.70;7.53;;;11.60;97.50;;;;;;5133348;27;20058;-73
2022/05/05 05:56:27;;;;;;;15.70;7.30;;;11.50;97.40;;;;;;5133584;27;20493;-74
2022/05/05 05:58:53;;;;;;;21.15;7.47;;;11.40;97.60;;;;;;5133698;27;20043;-73
2022/05/05 06:01:19;;;;;;;16.13;6.95;;;11.40;97.80;;;;;;5133574;27;20482;-73
2022/05/05 06:03:53;;;;;;;14.82;7.38;;;11.40;97.90;;;;;;5133763;27;20055;-73
2022/05/05 06:06:20;;;;;;;17.23;6.20;;;11.60;97.80;;;;;;5168365;27;20043;-73
2022/05/05 06:08:46;;;;;;;18.00;6.70;;;11.60;97.60;;;;;;5133655;27;20051;-73
2022/05/05 06:11:13;;;;;;;22.42;6.93;;;11.70;97.70;;;;;;5133060;27;20054;-79
2022/05/05 06:13:39;;;;;;;19.80;7.38;;;11.80;97.80;;;;;;5133216;27;20546;-76
2022/05/05 06:16:06;;;;;;;13.38;6.68;;;11.80;97.60;;;;;;5132885;27;20130;-76
2022/05/05 06:18:32;;;;;;;11.45;5.82;;;11.80;97.60;;;;;;5133522;28;20051;-76
2022/05/05 06:20:58;;;;;;;16.63;6.00;;;11.90;97.70;;;;;;5133383;28;20398;-76
2022/05/05 06:23:24;;;;;;;18.58;7.00;;;12.00;97.70;;;;;;5133488;27;20047;-75
2022/05/05 06:25:50;;;;;;;16.52;6.35;;;11.90;97.50;;;;;;5133537;28;20108;-79
2022/05/05 06:28:15;;;;;;;16.20;5.93;;;11.90;97.80;;;;;;5133477;27;20043;-75
2022/05/05 06:30:41;;;;;;;12.73;6.07;;;11.90;97.80;;;;;;5133684;28;20051;-75
2022/05/05 06:33:07;;;;;;;15.88;6.07;;;12.10;97.80;;;;;;5134226;28;20086;-74
2022/05/05 06:35:32;;;;;;;12.63;5.75;;;12.20;97.70;;;;;;5133251;28;20047;-78
2022/05/05 06:37:58;;;;;;;18.25;5.70;;;12.10;97.90;;;;;;5133089;27;20054;-78
2022/05/05 06:40:24;;;;;;;17.05;6.18;;;12.00;97.60;;;;;;5132919;27;20047;-79
2022/05/05 06:42:50;;;;;;;10.32;5.50;;;12.00;97.80;;;;;;5132967;27;20126;-78
2022/05/05 06:45:16;;;;;;;13.80;6.25;;;12.20;98.00;;;;;;5133227;27;20131;-78
2022/05/05 06:47:42;;;;;;;14.85;5.88;;;12.20;97.50;;;;;;5132704;28;20126;-77
2022/05/05 06:50:08;;;;;;;12.88;5.63;;;12.20;98.00;;;;;;5133116;27;20047;-79
2022/05/05 06:52:33;;;;;;;18.25;6.50;;;12.30;98.00;;;;;;5132618;28;20100;-78
2022/05/05 06:55:00;;;;;;;11.48;6.10;;;12.50;97.70;;;;;;5132887;27;20051;-78
2022/05/05 06:57:26;;;;;;;12.70;5.55;;;12.60;97.70;;;;;;5132956;28;20128;-78
2022/05/05 06:59:52;;;;;;;15.60;5.63;;;12.80;98.00;;;;;;5133216;27;20043;-78
2022/05/05 07:02:18;;;;;;;11.77;5.47;;;12.90;97.90;;;;;;5133018;28;20043;-78
2022/05/05 07:07:28;;;;;;;16.77;5.88;;;13.10;97.50;;;;;;5132797;28;20055;-79
2022/05/05 07:12:38;;;;;;;12.75;5.90;;;13.00;97.20;;;;;;5132326;27;20407;-75
2022/05/05 07:15:04;;;;;;;15.80;6.15;;;13.10;97.40;;;;;;5138649;28;20107;-75
2022/05/05 07:17:30;;;;;;;14.80;5.90;;;13.30;97.80;;;;;;5133640;27;20070;-76
2022/05/05 07:19:58;;;;;;;16.30;6.35;;;13.30;98.20;;;;;;5115531;28;20087;-77
2022/05/05 07:22:24;;;;;;;11.95;5.70;;;13.30;97.80;;;;;;5132990;27;20501;-78
2022/05/05 07:24:49;;;;;;;13.48;5.38;;;13.40;97.90;;;;;;5115733;28;20044;-77
2022/05/05 07:27:15;;;;;;;12.18;5.70;;;13.50;98.10;;;;;;5134662;27;20047;-77
2022/05/05 07:29:42;;;;;;;16.05;6.25;;;13.40;97.40;;;;;;5136353;27;20051;-77
2022/05/05 07:32:08;;;;;;;13.05;5.68;;;13.20;97.30;;;;;;5136282;27;20383;-77
2022/05/05 07:34:34;;;;;;;14.10;5.65;;;13.20;97.40;;;;;;5136172;27;20171;-78
2022/05/05 07:37:01;;;;;;;13.80;5.70;;;13.40;98.20;;;;;;5136358;27;20534;-78
2022/05/05 07:39:27;;;;;;;13.35;6.50;;;13.50;97.70;;;;;;5136575;27;20051;-77
2022/05/05 07:41:53;;;;;;;17.83;6.45;;;13.30;97.20;;;;;;5136161;27;20195;-77
2022/05/05 07:44:18;;;;;;;13.27;6.40;;;13.20;97.10;;;;;;5118782;27;20498;-77
2022/05/05 07:46:44;;;;;;;14.23;6.18;;;13.10;97.30;;;;;;5118930;27;20551;-74
2022/05/05 07:49:10;;;;;;;18.67;6.40;;;12.90;97.30;;;;;;5135914;27;20074;-76
2022/05/05 07:51:36;;;;;;;17.15;6.28;;;13.00;97.40;;;;;;5135593;27;20039;-77
2022/05/05 07:56:47;;;;;;;13.38;6.60;;;13.50;97.90;;;;;;5121793;27;20051;-76
2022/05/05 07:59:13;;;;;;;14.45;5.88;;;13.80;97.70;;;;;;5135941;27;20383;-77
2022/05/05 08:01:38;;;;;;;16.55;6.60;;;14.00;97.50;;;;;;5135715;27;20064;-77
2022/05/05 08:04:05;;;;;;;14.70;6.10;;;14.20;97.20;;;;;;5135653;27;20043;-77
2022/05/05 08:06:34;;;;;;;12.85;6.22;;;14.30;97.00;;;;;;5135605;27;20047;-78
2022/05/05 08:08:59;;;;;;;17.08;6.53;;;14.50;97.00;;;;;;5135600;27;20047;-77
2022/05/05 08:11:27;;;;;;;14.82;5.97;;;14.60;97.10;;;;;;5135960;27;20047;-76
2022/05/05 08:13:54;;;;;;;11.65;6.07;;;14.70;97.00;;;;;;5135017;27;20055;-76
2022/05/05 08:16:20;;;;;;;12.50;6.15;;;14.80;96.50;;;;;;5118522;27;20477;-77
2022/05/05 08:18:49;;;;;;;12.38;5.97;;;14.80;96.50;;;;;;5136626;27;20051;-78
2022/05/05 08:21:15;;;;;;;15.70;6.50;;;14.80;96.30;;;;;;5135162;27;20505;-79
2022/05/05 08:23:43;;;;;;;16.70;6.30;;;14.70;96.40;;;;;;5135653;27;20054;-80
2022/05/05 08:28:53;;;;;;;13.20;6.13;;;14.90;96.10;;;;;;5120906;27;20089;-81
2022/05/05 08:31:19;;;;;;;17.88;6.38;;;14.90;96.20;;;;;;5135210;27;20145;-81
2022/05/05 08:33:44;;;;;;;11.85;5.35;;;15.10;96.10;;;;;;5135259;27;20051;-71
2022/05/05 08:36:10;;;;;;;13.52;5.43;;;15.10;96.40;;;;;;5135306;27;20390;-75
2022/05/05 08:38:36;;;;;;;18.15;5.95;;;15.00;96.00;;;;;;5117863;27;20051;-76
2022/05/05 08:41:03;;;;;;;13.73;6.03;;;15.00;96.20;;;;;;5135025;27;20053;-78
2022/05/05 08:43:29;;;;;;;16.20;5.78;;;15.10;96.20;;;;;;5117531;27;20144;-78
2022/05/05 08:45:58;;;;;;;8.18;4.72;;;15.30;96.40;;;;;;5134887;27;20055;-79
2022/05/05 08:48:24;;;;;;;11.55;4.70;;;15.50;95.30;;;;;;5134779;27;20043;-77
2022/05/05 08:50:56;;;;;;;10.70;4.25;;;15.60;95.10;;;;;;5117843;27;20062;-78
2022/05/05 08:53:29;;;;;;;11.57;3.85;;;15.60;94.70;;;;;;5134476;27;20051;-80
2022/05/05 08:55:54;;;;;;;9.18;3.72;;;15.10;95.00;;;;;;5134566;27;20054;-79
2022/05/05 08:58:22;;;;;;;10.35;4.20;;;15.40;95.30;;;;;;5134471;27;20051;-79
2022/05/05 09:00:52;;;;;;;10.32;4.22;;;15.30;95.40;;;;;;5134762;27;20130;-78
2022/05/05 09:03:18;;;;;;;8.75;4.75;;;15.40;95.10;;;;;;5134572;27;20099;-79
2022/05/05 09:05:44;;;;;;;6.38;3.53;;;15.60;95.70;;;;;;5134437;27;20537;-79
2022/05/05 09:08:26;;;;;;;10.90;4.20;;;15.60;94.70;;;;;;5134576;27;20130;-79
2022/05/05 09:10:54;;;;;;;14.90;5.57;;;15.60;95.20;;;;;;5135593;27;20057;-82
2022/05/05 09:13:28;;;;;;;11.80;5.10;;;15.50;95.30;;;;;;5100540;27;20089;-83
2022/05/05 09:15:54;;;;;;;12.40;5.07;;;15.40;94.80;;;;;;5117470;27;20449;-83
2022/05/05 09:18:29;;;;;;;12.98;5.40;;;15.50;95.40;;;;;;5134396;27;20166;-85
2022/05/05 09:20:56;;;;;;;13.93;5.57;;;15.60;95.10;;;;;;5134303;27;20086;-81
2022/05/05 09:26:28;;;;;;;13.95;4.93;;;16.20;95.60;;;;;;5134207;27;20152;-80
2022/05/05 09:28:55;;;;;;;12.35;4.82;;;16.20;95.20;;;;;;5134543;27;20054;-88
2022/05/05 09:31:23;;;;;;;10.02;5.13;;;16.30;94.90;;;;;;5133821;27;20039;-87
2022/05/05 09:33:50;;;;;;;7.93;4.50;;;16.10;94.90;;;;;;5134945;27;20097;-87
2022/05/05 09:36:29;;;;;;;14.75;4.40;;;16.10;95.00;;;;;;5116698;27;20050;-88
2022/05/05 09:39:00;;;;;;;13.75;5.28;;;16.10;95.10;;;;;;5134315;27;20043;-88
2022/05/05 09:41:34;;;;;;;16.00;4.90;;;16.30;95.70;;;;;;5134351;27;20055;-87
2022/05/05 09:44:11;;;;;;;16.02;4.97;;;16.20;95.00;;;;;;5133377;27;20082;-85
2022/05/05 09:46:37;;;;;;;15.68;5.25;;;16.40;95.70;;;;;;5134260;27;20047;-88
2022/05/05 09:49:13;;;;;;;14.20;5.00;;;16.40;94.80;;;;;;5133266;27;20055;-88
2022/05/05 09:57:39;;;;;;;9.32;4.50;;;16.50;94.80;;;;;;5133799;27;20039;-83
2022/05/05 09:57:40;;;;;;;9.35;4.43;;;17.10;95.60;;;;;;5134949;27;20594;-78
2022/05/05 10:00:23;;;;;;;13.95;4.35;;;17.30;95.20;;;;;;5134076;27;20054;-82
2022/05/05 10:05:45;;;;;;;11.48;5.35;;;17.60;95.10;;;;;;5133527;27;20055;-82
2022/05/05 10:08:15;;;;;;;19.35;6.00;;;17.10;95.30;;;;;;5133687;27;20046;-82
2022/05/05 10:10:42;;;;;;;9.45;4.97;;;17.10;95.20;;;;;;5116424;27;20114;-82
2022/05/05 10:13:10;;;;;;;8.93;4.80;;;16.90;95.10;;;;;;5115726;28;20043;-82
2022/05/05 10:15:37;;;;;;;12.90;5.80;;;16.90;95.10;;;;;;5133332;27;20053;-82
2022/05/05 10:18:04;;;;;;;12.98;5.65;;;17.00;95.70;;;;;;5133473;27;20542;-82
2022/05/05 10:20:33;;;;;;;9.60;5.70;;;17.00;95.00;;;;;;5133607;28;20146;-82
2022/05/05 10:23:22;;;;;;;9.10;5.07;;;17.00;95.10;;;;;;5133093;27;20100;-82
2022/05/05 10:25:55;;;;;;;10.75;4.97;;;17.00;95.10;;;;;;5133538;27;20047;-83
2022/05/05 10:28:49;;;;;;;17.30;6.20;;;17.10;95.00;;;;;;5133397;27;20528;-83
2022/05/05 10:31:30;;;;;;;17.25;5.85;;;17.40;95.10;;;;;;5133132;27;20043;-82
2022/05/05 10:34:01;;;;;;;10.90;5.82;;;17.30;94.80;;;;;;5133311;27;20047;-82
2022/05/05 10:36:30;;;;;;;8.30;5.35;;;17.30;95.20;;;;;;5132996;27;20448;-82
2022/05/05 10:38:57;;;;;;;10.30;5.55;;;17.40;95.10;;;;;;5133416;28;20039;-82
2022/05/05 10:41:39;;;;;;;10.55;5.63;;;17.00;94.80;;;;;;5133173;28;20035;-81
2022/05/05 10:44:20;;;;;;;14.20;5.68;;;17.00;94.90;;;;;;5132870;28;20051;-82
2022/05/05 10:47:02;;;;;;;19.50;5.97;;;16.90;95.30;;;;;;5133125;27;20550;-82
2022/05/05 10:52:11;;;;;;;16.65;5.97;;;16.90;95.10;;;;;;5133168;27;20051;-82
2022/05/05 10:54:47;;;;;;;38.28;7.10;;;17.20;94.90;;;;;;5134563;27;20051;-81
2022/05/05 10:57:40;;;;;;;14.45;6.20;;;17.70;95.20;;;;;;5136631;28;20474;-83
2022/05/05 11:00:10;;;;;;;15.77;6.30;;;18.20;95.00;;;;;;5112430;27;20061;-78
2022/05/05 11:02:38;;;;;;;15.82;6.93;;;18.40;95.00;;;;;;5137009;27;20047;-82
2022/05/05 11:05:29;;;;;;;11.82;6.22;;;18.60;95.20;;;;;;5136901;27;20051;-82
2022/05/05 11:08:17;;;;;;;9.65;5.90;;;18.60;95.10;;;;;;5137274;27;20043;-81
2022/05/05 11:10:46;;;;;;;15.02;6.10;;;18.80;95.00;;;;;;5136942;27;20086;-81
2022/05/05 11:13:35;;;;;;;10.00;6.13;;;19.10;94.80;;;;;;5136037;27;20043;-81
2022/05/05 11:22:17;;;;;;;14.15;6.40;;;19.10;94.70;;;;;;5136870;27;20055;-85
2022/05/05 11:24:46;;;;;;;10.13;5.65;;;18.70;95.00;;;;;;5137045;27;20050;-85
2022/05/05 11:27:20;;;;;;;9.70;5.72;;;18.70;94.90;;;;;;5122142;27;20050;-82
2022/05/05 11:29:53;;;;;;;11.13;5.82;;;18.90;94.80;;;;;;5136874;27;20054;-85
2022/05/05 11:32:19;;;;;;;9.23;6.78;;;18.80;94.50;;;;;;5136319;27;20451;-81
2022/05/05 11:34:47;;;;;;;8.98;5.90;;;18.90;94.50;;;;;;5136322;27;20051;-78
2022/05/05 11:37:13;;;;;;;14.88;6.72;;;18.70;94.60;;;;;;5136449;27;20062;-78
2022/05/05 11:39:39;;;;;;;12.23;6.32;;;18.80;94.80;;;;;;5136510;27;20043;-78
2022/05/05 11:42:07;;;;;;;14.27;6.20;;;19.10;94.80;;;;;;5136254;27;20065;-80
2022/05/05 11:44:37;;;;;;;11.98;6.10;;;19.40;94.90;;;;;;5118550;27;20057;-80
2022/05/05 11:47:13;;;;;;;11.25;6.45;;;19.50;94.10;;;;;;5136051;27;20486;-77
2022/05/05 11:49:40;;;;;;;11.60;5.82;;;19.20;94.30;;;;;;5136668;27;20520;-77
2022/05/05 11:52:06;;;;;;;13.32;6.55;;;19.20;94.50;;;;;;5135748;27;20228;-77
2022/05/05 11:54:33;;;;;;;12.73;6.40;;;19.20;94.50;;;;;;5135964;27;20055;-77
2022/05/05 11:57:00;;;;;;;11.05;6.32;;;19.20;94.60;;;;;;5137138;27;20051;-77
2022/05/05 12:02:21;;;;;;;17.40;6.13;;;19.10;94.50;;;;;;5112540;27;20059;-77
2022/05/05 12:04:51;;;;;;;18.45;6.43;;;18.90;94.60;;;;;;5134856;27;20065;-77
2022/05/05 12:07:22;;;;;;;12.82;6.03;;;18.80;95.10;;;;;;5136145;27;20359;-81
2022/05/05 12:09:53;;;;;;;16.15;6.55;;;18.90;95.00;;;;;;5135688;27;20051;-83
2022/05/05 12:12:24;;;;;;;11.02;5.93;;;19.10;94.70;;;;;;5100941;27;20134;-83
2022/05/05 12:14:56;;;;;;;13.85;6.03;;;19.50;94.90;;;;;;5135278;27;20088;-83
2022/05/05 12:17:23;;;;;;;16.13;6.93;;;19.80;94.60;;;;;;5135496;27;20039;-83
2022/05/05 12:19:59;;;;;;;12.45;6.10;;;19.80;94.30;;;;;;5118448;27;20134;-81
2022/05/05 12:22:30;;;;;;;9.32;5.97;;;19.90;94.20;;;;;;5135294;27;20039;-83
2022/05/05 12:25:14;;;;;;;11.05;5.70;;;19.90;94.50;;;;;;5135608;27;20051;-83
2022/05/05 12:28:00;;;;;;;10.18;5.95;;;20.30;94.30;;;;;;5119831;27;20402;-78
2022/05/05 12:30:36;;;;;;;11.00;6.85;;;20.70;94.50;;;;;;5134809;27;20042;-78
2022/05/05 12:33:04;;;;;;;10.48;6.40;;;20.90;94.40;;;;;;5118045;27;20043;-78
2022/05/05 12:35:37;;;;;;;11.82;6.25;;;21.40;94.00;;;;;;5135340;27;20043;-75
2022/05/05 12:38:05;;;;;;;10.88;6.60;;;21.90;94.20;;;;;;5135352;27;20134;-75
2022/05/05 12:40:32;;;;;;;11.00;6.13;;;21.90;94.00;;;;;;5134960;27;20050;-82
2022/05/05 12:43:00;;;;;;;9.70;5.93;;;22.00;94.10;;;;;;5134841;27;20050;-77
2022/05/05 12:45:27;;;;;;;10.45;6.75;;;21.70;94.10;;;;;;5135759;27;20050;-79
2022/05/05 12:47:54;;;;;;;10.77;6.50;;;21.80;93.80;;;;;;5136076;27;20135;-72
2022/05/05 12:50:41;;;;;;;10.35;6.63;;;21.80;94.00;;;;;;5135003;27;20043;-77
2022/05/05 13:01:34;;;;;;;11.68;6.20;;;21.20;93.80;;;;;;5135884;27;20090;-74
2022/05/05 13:04:05;;;;;;;11.20;6.47;;;21.40;93.80;;;;;;5134646;27;20446;-74
2022/05/05 13:06:31;;;;;;;12.50;6.45;;;21.50;93.40;;;;;;5134382;27;20069;-75
2022/05/05 13:08:58;;;;;;;9.18;5.28;;;21.70;93.40;;;;;;5135864;27;20058;-75
2022/05/05 13:11:24;;;;;;;6.93;5.25;;;21.80;93.70;;;;;;5135419;27;20079;-74
2022/05/05 13:13:52;;;;;;;11.27;5.68;;;22.70;93.70;;;;;;5135024;27;20047;-74
2022/05/05 13:16:18;;;;;;;7.65;4.47;;;23.00;93.30;;;;;;5135312;27;20093;-74
2022/05/05 13:18:44;;;;;;;7.28;4.68;;;23.40;93.40;;;;;;5135318;27;20086;-75
2022/05/05 13:21:10;;;;;;;10.68;5.40;;;23.80;93.30;;;;;;5134818;27;20054;-75
2022/05/05 13:23:36;;;;;;;8.55;5.10;;;23.80;93.10;;;;;;5135205;27;20126;-74
2022/05/05 13:26:05;;;;;;;11.95;5.82;;;24.00;93.00;;;;;;5135186;27;20129;-75
2022/05/05 13:28:34;;;;;;;8.90;5.47;;;23.50;92.80;;;;;;5133986;27;20538;-74
2022/05/05 13:31:00;;;;;;;12.32;5.82;;;22.80;93.00;;;;;;5135168;27;20043;-74
2022/05/05 13:33:26;;;;;;;31.10;5.82;;;22.20;92.90;;;;;;5134846;27;20047;-74
2022/05/05 13:35:51;;;;;;;7.88;5.00;;;22.10;93.30;;;;;;5134538;27;20446;-71
2022/05/05 13:38:23;;;;;;;13.02;5.40;;;22.20;92.80;;;;;;5134877;27;20134;-82
2022/05/05 13:40:49;;;;;;;6.47;5.00;;;22.40;92.90;;;;;;5134372;27;20055;-72